Time,TemperatureF,DewpointF,PressureIn,WindDirection,WindDirectionDegrees,WindSpeedMPH,WindSpeedGustMPH,Humidity,HourlyPrecipIn,Conditions,Clouds,dailyrainin,SoftwareType,DateUTC
2013-02-04 00:00:00,45.3,27.8,29.86,NNW,337,4.7,-999.0,50,-99.99,,,0.00,Acu-Link.com,2013-02-04 07:00:00,
2013-02-04 00:15:00,45.1,28.1,29.86,West,270,7.8,-999.0,51,-99.99,,,0.00,Acu-Link.com,2013-02-04 07:15:00,
2013-02-04 00:30:00,44.2,27.7,29.86,North,0,4.7,-999.0,52,-99.99,,,0.00,Acu-Link.com,2013-02-04 07:30:00,
2013-02-04 00:46:00,43.5,28.0,29.86,North,0,9.4,-999.0,54,-99.99,,,0.00,Acu-Link.com,2013-02-04 07:46:00,
2013-02-04 01:01:00,43.9,29.2,29.85,NW,315,6.7,-999.0,56,-99.99,,,0.00,Acu-Link.com,2013-02-04 08:01:00,
2013-02-04 01:16:00,43.2,29.0,29.87,NNW,337,4.3,-999.0,57,-99.99,,,0.00,Acu-Link.com,2013-02-04 08:16:00,
2013-02-04 01:31:00,42.1,28.4,29.86,ESE,112,0.0,-999.0,58,-99.99,,,0.00,Acu-Link.com,2013-02-04 08:31:00,
2013-02-04 01:46:00,41.0,28.6,29.86,NE,45,2.7,-999.0,61,-99.99,,,0.00,Acu-Link.com,2013-02-04 08:46:00,
2013-02-04 02:02:00,40.8,28.4,29.86,NNE,22,6.3,-999.0,61,-99.99,,,0.00,Acu-Link.com,2013-02-04 09:02:00,
2013-02-04 02:17:00,40.5,28.9,29.87,NNE,22,4.3,-999.0,63,-99.99,,,0.00,Acu-Link.com,2013-02-04 09:17:00,
2013-02-04 02:32:00,39.9,28.7,29.88,North,0,3.8,-999.0,64,-99.99,,,0.00,Acu-Link.com,2013-02-04 09:32:00,
2013-02-04 02:47:00,39.0,28.6,29.88,NNE,22,2.2,-999.0,66,-99.99,,,0.00,Acu-Link.com,2013-02-04 09:47:00,
2013-02-04 03:02:00,39.2,29.5,29.88,WNW,292,6.3,-999.0,68,-99.99,,,0.00,Acu-Link.com,2013-02-04 10:02:00,
2013-02-04 03:18:00,38.7,29.7,29.88,NNW,337,4.3,-999.0,70,-99.99,,,0.00,Acu-Link.com,2013-02-04 10:18:00,
2013-02-04 03:33:00,37.9,29.4,29.88,West,270,3.1,-999.0,71,-99.99,,,0.00,Acu-Link.com,2013-02-04 10:33:00,
2013-02-04 03:48:00,37.2,29.4,29.88,WNW,292,5.1,-999.0,73,-99.99,,,0.00,Acu-Link.com,2013-02-04 10:48:00,
2013-02-04 04:03:00,38.1,29.9,29.87,WNW,292,8.3,-999.0,72,-99.99,,,0.00,Acu-Link.com,2013-02-04 11:03:00,
2013-02-04 04:18:00,37.8,29.9,29.86,NNW,337,10.3,-999.0,73,-99.99,,,0.00,Acu-Link.com,2013-02-04 11:18:00,
2013-02-04 04:34:00,38.3,30.4,29.87,North,0,8.3,-999.0,73,-99.99,,,0.00,Acu-Link.com,2013-02-04 11:34:00,
2013-02-04 04:49:00,37.9,30.4,29.88,North,0,4.3,-999.0,74,-99.99,,,0.00,Acu-Link.com,2013-02-04 11:49:00,
2013-02-04 05:04:00,37.2,30.0,29.89,NNW,337,5.8,-999.0,75,-99.99,,,0.00,Acu-Link.com,2013-02-04 12:04:00,
2013-02-04 05:19:00,36.9,30.3,29.90,North,0,2.2,-999.0,77,-99.99,,,0.00,Acu-Link.com,2013-02-04 12:19:00,
2013-02-04 05:35:00,36.5,30.6,29.90,WNW,292,1.1,-999.0,79,-99.99,,,0.00,Acu-Link.com,2013-02-04 12:35:00,
2013-02-04 05:50:00,35.8,29.3,29.91,West,270,1.6,-999.0,77,-99.99,,,0.00,Acu-Link.com,2013-02-04 12:50:00,
2013-02-04 06:05:00,34.9,29.0,29.91,SW,225,0.0,-999.0,79,-99.99,,,0.00,Acu-Link.com,2013-02-04 13:05:00,
2013-02-04 06:20:00,35.6,28.8,29.91,South,180,0.0,-999.0,76,-99.99,,,0.00,Acu-Link.com,2013-02-04 13:20:00,
2013-02-04 06:35:00,36.1,29.0,29.91,ENE,67,2.2,-999.0,75,-99.99,,,0.00,Acu-Link.com,2013-02-04 13:35:00,
2013-02-04 06:51:00,34.9,28.4,29.92,East,90,2.2,-999.0,77,-99.99,,,0.00,Acu-Link.com,2013-02-04 13:51:00,
2013-02-04 07:06:00,34.0,28.5,29.92,WNW,292,0.0,-999.0,80,-99.99,,,0.00,Acu-Link.com,2013-02-04 14:06:00,
2013-02-04 07:21:00,33.3,28.4,29.94,West,270,0.0,-999.0,82,-99.99,,,0.00,Acu-Link.com,2013-02-04 14:21:00,
2013-02-04 07:36:00,33.6,28.7,29.94,SE,135,2.2,-999.0,82,-99.99,,,0.00,Acu-Link.com,2013-02-04 14:36:00,
2013-02-04 07:51:00,34.9,29.3,29.95,East,90,2.2,-999.0,80,-99.99,,,0.00,Acu-Link.com,2013-02-04 14:51:00,
2013-02-04 08:07:00,39.0,30.4,29.95,ESE,112,0.0,-999.0,71,-99.99,,,0.00,Acu-Link.com,2013-02-04 15:07:00,
2013-02-04 08:22:00,40.1,30.4,29.95,NE,45,5.1,-999.0,68,-99.99,,,0.00,Acu-Link.com,2013-02-04 15:22:00,
2013-02-04 08:37:00,40.8,30.4,29.96,ESE,112,3.1,-999.0,66,-99.99,,,0.00,Acu-Link.com,2013-02-04 15:37:00,
2013-02-04 08:52:00,41.7,30.5,29.96,NE,45,5.8,-999.0,64,-99.99,,,0.00,Acu-Link.com,2013-02-04 15:52:00,
2013-02-04 09:07:00,43.0,30.9,29.97,ENE,67,4.7,-999.0,62,-99.99,,,0.00,Acu-Link.com,2013-02-04 16:07:00,
2013-02-04 09:23:00,43.5,30.6,29.97,NNW,337,1.6,-999.0,60,-99.99,,,0.00,Acu-Link.com,2013-02-04 16:23:00,
2013-02-04 09:38:00,45.0,31.1,29.97,NE,45,2.2,-999.0,58,-99.99,,,0.00,Acu-Link.com,2013-02-04 16:38:00,
2013-02-04 09:53:00,46.0,31.2,29.96,East,90,4.3,-999.0,56,-99.99,,,0.00,Acu-Link.com,2013-02-04 16:53:00,
2013-02-04 10:08:00,46.9,31.6,29.96,NE,45,3.8,-999.0,55,-99.99,,,0.00,Acu-Link.com,2013-02-04 17:08:00,
2013-02-04 10:24:00,47.7,31.4,29.96,NNE,22,5.1,-999.0,53,-99.99,,,0.00,Acu-Link.com,2013-02-04 17:24:00,
2013-02-04 10:39:00,48.9,31.6,29.96,North,0,4.3,-999.0,51,-99.99,,,0.00,Acu-Link.com,2013-02-04 17:39:00,
2013-02-04 10:54:00,49.6,31.3,29.96,NNE,22,5.8,-999.0,49,-99.99,,,0.00,Acu-Link.com,2013-02-04 17:54:00,
2013-02-04 11:09:00,51.3,31.2,29.95,ENE,67,7.8,-999.0,46,-99.99,,,0.00,Acu-Link.com,2013-02-04 18:09:00,
2013-02-04 11:24:00,51.1,29.4,29.95,NNW,337,4.7,-999.0,43,-99.99,,,0.00,Acu-Link.com,2013-02-04 18:24:00,
2013-02-04 11:40:00,52.9,29.8,29.94,NNW,337,4.7,-999.0,41,-99.99,,,0.00,Acu-Link.com,2013-02-04 18:40:00,
2013-02-04 11:55:00,52.7,29.7,29.94,NW,315,4.7,-999.0,41,-99.99,,,0.00,Acu-Link.com,2013-02-04 18:55:00,
2013-02-04 12:10:00,53.2,28.9,29.93,NE,45,2.7,-999.0,39,-99.99,,,0.00,Acu-Link.com,2013-02-04 19:10:00,
2013-02-04 12:25:00,53.6,29.3,29.92,NNW,337,6.3,-999.0,39,-99.99,,,0.00,Acu-Link.com,2013-02-04 19:25:00,
2013-02-04 12:40:00,54.0,28.3,29.91,WSW,247,3.1,-999.0,37,-99.99,,,0.00,Acu-Link.com,2013-02-04 19:40:00,
2013-02-04 12:56:00,54.7,27.6,29.90,NW,315,3.1,-999.0,35,-99.99,,,0.00,Acu-Link.com,2013-02-04 19:56:00,
2013-02-04 13:11:00,56.1,28.8,29.89,NNW,337,4.7,-999.0,35,-99.99,,,0.00,Acu-Link.com,2013-02-04 20:11:00,
2013-02-04 13:26:00,56.1,26.7,29.88,NW,315,2.7,-999.0,32,-99.99,,,0.00,Acu-Link.com,2013-02-04 20:26:00,
2013-02-04 13:41:00,56.5,26.2,29.87,NNW,337,2.7,-999.0,31,-99.99,,,0.00,Acu-Link.com,2013-02-04 20:41:00,
2013-02-04 13:57:00,56.5,27.0,29.87,WNW,292,0.0,-999.0,32,-99.99,,,0.00,Acu-Link.com,2013-02-04 20:57:00,
2013-02-04 14:12:00,56.8,27.3,29.86,WSW,247,4.3,-999.0,32,-99.99,,,0.00,Acu-Link.com,2013-02-04 21:12:00,
2013-02-04 14:27:00,57.7,26.5,29.86,NW,315,3.8,-999.0,30,-99.99,,,0.00,Acu-Link.com,2013-02-04 21:27:00,
2013-02-04 14:42:00,57.4,27.0,29.85,NNW,337,5.1,-999.0,31,-99.99,,,0.00,Acu-Link.com,2013-02-04 21:42:00,
2013-02-04 14:57:00,58.1,27.6,29.85,WSW,247,3.1,-999.0,31,-99.99,,,0.00,Acu-Link.com,2013-02-04 21:57:00,
2013-02-04 15:13:00,57.7,27.3,29.85,NNW,337,2.7,-999.0,31,-99.99,,,0.00,Acu-Link.com,2013-02-04 22:13:00,
2013-02-04 15:28:00,58.6,26.5,29.84,West,270,8.3,-999.0,29,-99.99,,,0.00,Acu-Link.com,2013-02-04 22:28:00,
2013-02-04 15:43:00,58.1,25.2,29.84,NW,315,2.7,-999.0,28,-99.99,,,0.00,Acu-Link.com,2013-02-04 22:43:00,
2013-02-04 15:58:00,58.5,25.5,29.84,SW,225,5.1,-999.0,28,-99.99,,,0.00,Acu-Link.com,2013-02-04 22:58:00,
2013-02-04 16:13:00,58.5,24.6,29.83,SW,225,0.0,-999.0,27,-99.99,,,0.00,Acu-Link.com,2013-02-04 23:13:00,
2013-02-04 16:29:00,58.5,20.8,29.83,North,0,4.7,-999.0,23,-99.99,,,0.00,Acu-Link.com,2013-02-04 23:29:00,
2013-02-04 16:44:00,57.7,19.2,29.83,North,0,6.3,-999.0,22,-99.99,,,0.00,Acu-Link.com,2013-02-04 23:44:00,
2013-02-04 16:59:00,56.5,20.1,29.84,NE,45,6.7,-999.0,24,-99.99,,,0.00,Acu-Link.com,2013-02-04 23:59:00,
2013-02-04 17:14:00,55.6,20.3,29.84,ENE,67,4.7,-999.0,25,-99.99,,,0.00,Acu-Link.com,2013-02-05 00:14:00,
2013-02-04 17:30:00,54.7,19.6,29.84,NNE,22,4.3,-999.0,25,-99.99,,,0.00,Acu-Link.com,2013-02-05 00:30:00,
2013-02-04 17:45:00,53.1,19.1,29.84,NW,315,4.3,-999.0,26,-99.99,,,0.00,Acu-Link.com,2013-02-05 00:45:00,
2013-02-04 18:00:00,51.8,18.9,29.84,NNW,337,4.3,-999.0,27,-99.99,,,0.00,Acu-Link.com,2013-02-05 01:00:00,
2013-02-04 18:16:00,51.1,19.9,29.86,NNW,337,7.4,-999.0,29,-99.99,,,0.00,Acu-Link.com,2013-02-05 01:16:00,
2013-02-04 18:31:00,50.5,20.3,29.86,North,0,5.8,-999.0,30,-99.99,,,0.00,Acu-Link.com,2013-02-05 01:31:00,
2013-02-04 18:46:00,49.6,22.4,29.87,NNE,22,7.8,-999.0,34,-99.99,,,0.00,Acu-Link.com,2013-02-05 01:46:00,
2013-02-04 19:01:00,48.2,23.2,29.87,NNE,22,3.8,-999.0,37,-99.99,,,0.00,Acu-Link.com,2013-02-05 02:01:00,
2013-02-04 19:17:00,47.1,22.8,29.88,NNW,337,2.2,-999.0,38,-99.99,,,0.00,Acu-Link.com,2013-02-05 02:17:00,
2013-02-04 19:32:00,46.0,22.5,29.88,NNW,337,6.3,-999.0,39,-99.99,,,0.00,Acu-Link.com,2013-02-05 02:32:00,
2013-02-04 19:47:00,45.3,21.8,29.88,NNW,337,3.8,-999.0,39,-99.99,,,0.00,Acu-Link.com,2013-02-05 02:47:00,
2013-02-04 20:02:00,44.8,22.5,29.88,NNW,337,4.7,-999.0,41,-99.99,,,0.00,Acu-Link.com,2013-02-05 03:02:00,
2013-02-04 20:17:00,43.9,21.7,29.89,NE,45,2.2,-999.0,41,-99.99,,,0.00,Acu-Link.com,2013-02-05 03:17:00,
2013-02-04 20:33:00,46.6,20.4,29.89,NW,315,9.8,-999.0,35,-99.99,,,0.00,Acu-Link.com,2013-02-05 03:33:00,
2013-02-04 20:48:00,46.0,21.2,29.88,NE,45,5.8,-999.0,37,-99.99,,,0.00,Acu-Link.com,2013-02-05 03:48:00,
2013-02-04 21:03:00,44.6,21.8,29.90,NE,45,8.3,-999.0,40,-99.99,,,0.00,Acu-Link.com,2013-02-05 04:03:00,
2013-02-04 21:18:00,44.2,20.9,29.90,NNW,337,8.3,-999.0,39,-99.99,,,0.00,Acu-Link.com,2013-02-05 04:18:00,
2013-02-04 21:33:00,43.5,21.4,29.90,NNW,337,4.7,-999.0,41,-99.99,,,0.00,Acu-Link.com,2013-02-05 04:33:00,
2013-02-04 21:49:00,43.3,22.4,29.91,NNE,22,3.8,-999.0,43,-99.99,,,0.00,Acu-Link.com,2013-02-05 04:49:00,
2013-02-04 22:04:00,42.3,23.0,29.91,NNE,22,4.3,-999.0,46,-99.99,,,0.00,Acu-Link.com,2013-02-05 05:04:00,
2013-02-04 22:19:00,41.5,22.8,29.90,SSE,157,2.2,-999.0,47,-99.99,,,0.00,Acu-Link.com,2013-02-05 05:19:00,
2013-02-04 22:35:00,39.6,22.5,29.90,East,90,3.1,-999.0,50,-99.99,,,0.00,Acu-Link.com,2013-02-05 05:35:00,
2013-02-04 22:50:00,39.4,22.3,29.90,WNW,292,1.6,-999.0,50,-99.99,,,0.00,Acu-Link.com,2013-02-05 05:50:00,
2013-02-04 23:05:00,39.0,20.5,29.90,NW,315,4.7,-999.0,47,-99.99,,,0.00,Acu-Link.com,2013-02-05 06:05:00,
2013-02-04 23:20:00,40.3,19.0,29.90,NNW,337,4.7,-999.0,42,-99.99,,,0.00,Acu-Link.com,2013-02-05 06:20:00,
2013-02-04 23:35:00,40.3,18.5,29.90,NNW,337,4.3,-999.0,41,-99.99,,,0.00,Acu-Link.com,2013-02-05 06:35:00,
2013-02-04 23:51:00,40.1,18.3,29.90,WNW,292,5.1,-999.0,41,-99.99,,,0.00,Acu-Link.com,2013-02-05 06:51:00,